createdAt,value
2018-07-28T00:00:03.190Z,25.0
2018-07-28T00:05:02.454Z,24.8
2018-07-28T00:10:03.020Z,25.0
2018-07-28T00:15:02.805Z,24.8
2018-07-28T00:20:02.299Z,24.7
2018-07-28T00:25:02.707Z,24.7
2018-07-28T00:30:03.060Z,24.6
2018-07-28T00:35:02.543Z,24.5
2018-07-28T00:40:03.066Z,24.7
2018-07-28T00:45:02.436Z,24.7
2018-07-28T00:50:02.918Z,24.6
2018-07-28T00:55:02.398Z,24.5
2018-07-28T01:00:02.936Z,24.7
2018-07-28T01:05:02.314Z,24.6
2018-07-28T01:10:02.870Z,24.6
2018-07-28T01:15:03.223Z,24.5
2018-07-28T01:20:02.657Z,24.2
2018-07-28T01:25:03.033Z,24.2
2018-07-28T01:30:02.446Z,23.8
2018-07-28T01:35:02.876Z,23.7
2018-07-28T01:40:02.347Z,23.7
2018-07-28T01:45:02.787Z,23.6
2018-07-28T01:50:03.126Z,23.6
2018-07-28T01:55:02.461Z,23.2
2018-07-28T02:00:02.834Z,23.3
2018-07-28T02:05:03.236Z,23.2
2018-07-28T02:10:02.679Z,23.2
2018-07-28T02:15:03.021Z,23.2
2018-07-28T02:20:02.397Z,23.0
2018-07-28T02:25:02.783Z,23.0
2018-07-28T02:30:03.173Z,23.0
2018-07-28T02:35:02.576Z,23.1
2018-07-28T02:40:03.158Z,23.0
2018-07-28T02:45:02.590Z,23.0
2018-07-28T02:50:03.018Z,23.0
2018-07-28T02:55:02.424Z,22.7
2018-07-28T03:00:02.825Z,23.0
2018-07-28T03:05:03.168Z,23.1
2018-07-28T03:10:02.622Z,23.0
2018-07-28T03:15:03.108Z,22.7
2018-07-28T03:20:02.500Z,22.6
2018-07-28T03:25:02.987Z,22.5
2018-07-28T03:30:02.364Z,22.2
2018-07-28T03:35:02.825Z,22.2
2018-07-28T03:40:02.274Z,22.2
2018-07-28T03:45:02.679Z,22.1
2018-07-28T03:50:03.055Z,22.0
2018-07-28T03:55:02.460Z,22.0
2018-07-28T04:00:02.882Z,22.0
2018-07-28T04:05:02.326Z,21.8
2018-07-28T04:10:02.781Z,22.0
2018-07-28T04:15:03.278Z,21.8
2018-07-28T04:20:02.720Z,22.0
2018-07-28T04:25:03.094Z,22.0
2018-07-28T04:30:02.722Z,21.8
2018-07-28T04:35:03.101Z,21.7
2018-07-28T04:40:02.501Z,21.8
2018-07-28T04:45:02.929Z,21.8
2018-07-28T04:50:02.348Z,22.0
2018-07-28T04:55:02.779Z,22.2
2018-07-28T05:00:03.191Z,22.3
2018-07-28T05:05:02.572Z,22.6
2018-07-28T05:10:03.057Z,22.6
2018-07-28T05:15:02.677Z,22.7
2018-07-28T05:20:03.158Z,22.7
2018-07-28T05:25:02.566Z,22.7
2018-07-28T05:30:02.902Z,23.2
2018-07-28T05:35:02.256Z,23.3
2018-07-28T05:40:02.708Z,23.7
2018-07-28T05:45:03.191Z,24.2
2018-07-28T05:50:02.602Z,24.6
2018-07-28T05:55:02.337Z,24.6
2018-07-28T06:00:02.724Z,24.2
2018-07-28T06:05:03.199Z,24.2
2018-07-28T06:10:02.734Z,24.2
2018-07-28T06:15:03.104Z,24.6
2018-07-28T06:20:02.463Z,24.5
2018-07-28T06:25:02.821Z,24.8
2018-07-28T06:30:03.131Z,24.8
2018-07-28T06:35:02.497Z,24.7
2018-07-28T06:40:02.878Z,24.7
2018-07-28T06:45:03.220Z,24.2
2018-07-28T06:50:02.570Z,24.2
2018-07-28T06:55:02.979Z,24.2
2018-07-28T07:00:02.333Z,23.6
2018-07-28T07:05:02.778Z,23.3
2018-07-28T07:10:03.265Z,22.5
2018-07-28T07:15:02.633Z,21.2
2018-07-28T07:20:03.073Z,19.5
2018-07-28T07:25:02.430Z,19.5
2018-07-28T07:30:02.830Z,19.5
2018-07-28T07:35:03.212Z,19.7
2018-07-28T07:40:02.677Z,19.7
2018-07-28T07:45:03.324Z,20.0
2018-07-28T07:50:02.671Z,20.2
2018-07-28T07:55:03.069Z,20.2
2018-07-28T08:00:02.417Z,20.2
2018-07-28T08:05:02.815Z,20.2
2018-07-28T08:10:03.215Z,20.2
2018-07-28T08:15:02.507Z,20.2
2018-07-28T08:20:02.924Z,20.0
2018-07-28T08:25:02.315Z,20.1
2018-07-28T08:30:03.076Z,20.2
2018-07-28T08:35:02.511Z,20.8
2018-07-28T08:40:03.015Z,22.7
2018-07-28T08:45:03.150Z,22.7
2018-07-28T08:50:02.511Z,24.7
2018-07-28T08:55:02.941Z,24.3
2018-07-28T09:00:02.420Z,24.5
2018-07-28T09:05:02.822Z,24.7
2018-07-28T09:10:03.236Z,25.8
2018-07-28T09:15:02.638Z,25.8
2018-07-28T09:20:02.995Z,24.6
2018-07-28T09:25:02.414Z,26.2
2018-07-28T09:30:02.741Z,26.0
2018-07-28T09:35:02.284Z,26.1
2018-07-28T09:40:02.734Z,25.3
2018-07-28T09:45:03.237Z,24.6
2018-07-28T09:50:02.547Z,24.5
2018-07-28T09:55:02.947Z,24.0
2018-07-28T10:00:02.298Z,23.8
2018-07-28T10:05:02.730Z,23.8
2018-07-28T10:10:02.282Z,24.2
2018-07-28T10:15:02.638Z,24.2
2018-07-28T10:20:03.126Z,23.8
2018-07-28T10:25:02.515Z,23.1
2018-07-28T10:30:02.986Z,23.1
2018-07-28T10:35:02.540Z,23.2
2018-07-28T10:40:02.953Z,20.8
2018-07-28T10:45:02.309Z,20.8
2018-07-28T10:50:02.696Z,20.7
2018-07-28T10:55:03.115Z,21.2
2018-07-28T11:00:02.540Z,21.6
2018-07-28T11:05:03.241Z,21.8
2018-07-28T11:10:02.703Z,21.5
2018-07-28T11:15:03.072Z,22.2
2018-07-28T11:20:02.459Z,22.1
2018-07-28T11:25:02.843Z,21.7
2018-07-28T11:30:03.173Z,26.7
2018-07-28T11:35:02.829Z,26.7
2018-07-28T11:40:02.458Z,26.2
2018-07-28T11:45:02.839Z,26.8
2018-07-28T11:50:02.270Z,27.2
2018-07-28T11:55:02.662Z,27.3
2018-07-28T12:00:03.064Z,28.1
2018-07-28T12:05:02.431Z,28.5
2018-07-28T12:10:02.838Z,30.0
2018-07-28T12:15:03.191Z,29.7
2018-07-28T12:20:02.536Z,29.6
2018-07-28T12:25:02.890Z,30.0
2018-07-28T12:30:02.256Z,29.2
2018-07-28T12:35:02.728Z,29.7
2018-07-28T12:40:02.777Z,28.1
2018-07-28T12:45:03.203Z,29.1
2018-07-28T12:50:02.633Z,30.0
2018-07-28T12:55:03.008Z,30.2
2018-07-28T13:00:02.366Z,28.7
2018-07-28T13:05:02.818Z,28.8
2018-07-28T13:10:03.253Z,30.7
2018-07-28T13:15:02.743Z,29.7
2018-07-28T13:20:03.354Z,29.2
2018-07-28T13:25:02.919Z,28.2
2018-07-28T13:30:02.516Z,27.5
2018-07-28T13:35:02.973Z,27.2
2018-07-28T13:40:02.412Z,27.5
2018-07-28T13:45:02.970Z,27.3
2018-07-28T13:50:02.416Z,25.7
2018-07-28T13:55:03.107Z,15.8
2018-07-28T14:00:02.456Z,16.3
2018-07-28T14:05:02.947Z,19.5
2018-07-28T14:10:02.360Z,19.7
2018-07-28T14:15:02.950Z,20.6
2018-07-28T14:20:02.895Z,21.0
2018-07-28T14:25:02.300Z,21.8
2018-07-28T14:30:02.297Z,21.8
2018-07-28T14:35:02.714Z,22.5
2018-07-28T14:40:02.259Z,22.5
2018-07-28T14:45:02.708Z,24.2
2018-07-28T14:50:03.064Z,26.8
2018-07-28T14:55:02.504Z,27.5
2018-07-28T15:00:02.912Z,26.6
2018-07-28T15:05:02.543Z,26.8
2018-07-28T15:10:02.895Z,26.1
2018-07-28T15:15:02.275Z,27.2
2018-07-28T15:20:02.702Z,28.0
2018-07-28T15:25:03.110Z,25.8
2018-07-28T15:30:02.393Z,25.1
2018-07-28T15:35:02.786Z,25.7
2018-07-28T15:40:03.139Z,27.5
2018-07-28T15:45:02.663Z,28.2
2018-07-28T15:50:03.045Z,26.7
2018-07-28T15:55:02.484Z,28.1
2018-07-28T16:00:02.915Z,27.7
2018-07-28T16:05:02.426Z,27.7
2018-07-28T16:10:02.934Z,26.5
2018-07-28T16:15:02.352Z,25.8
2018-07-28T16:20:02.885Z,25.5
2018-07-28T16:25:02.386Z,24.7
2018-07-28T16:30:02.813Z,24.6
2018-07-28T16:35:03.216Z,24.2
2018-07-28T16:40:02.631Z,24.2
2018-07-28T16:45:02.583Z,24.0
2018-07-28T16:50:02.991Z,24.0
2018-07-28T16:55:02.300Z,23.7
2018-07-28T17:00:02.663Z,23.7
2018-07-28T17:05:03.121Z,23.7
2018-07-28T17:10:02.512Z,23.7
2018-07-28T17:15:02.941Z,23.8
2018-07-28T17:20:02.250Z,24.0
2018-07-28T17:25:02.622Z,25.0
2018-07-28T17:30:03.000Z,25.1
2018-07-28T17:35:02.370Z,26.1
2018-07-28T17:40:02.979Z,26.5
2018-07-28T17:45:02.525Z,26.5
2018-07-28T17:50:02.895Z,26.0
2018-07-28T17:55:02.269Z,26.1
2018-07-28T18:00:02.700Z,25.5
2018-07-28T18:05:02.908Z,25.3
2018-07-28T18:10:02.323Z,25.1
2018-07-28T18:15:02.738Z,24.2
2018-07-28T18:20:03.126Z,23.7
2018-07-28T18:25:02.505Z,23.8
2018-07-28T18:30:02.857Z,24.0
2018-07-28T18:35:03.238Z,24.0
2018-07-28T18:40:02.723Z,23.7
2018-07-28T18:45:03.127Z,23.0
2018-07-28T18:50:02.599Z,22.6
2018-07-28T18:55:02.973Z,22.5
2018-07-28T19:00:02.693Z,22.3
2018-07-28T19:05:02.257Z,22.1
2018-07-28T19:10:02.618Z,22.0
2018-07-28T19:15:03.088Z,21.7
2018-07-28T19:20:02.433Z,21.6
2018-07-28T19:25:02.780Z,21.5
2018-07-28T19:30:03.285Z,21.2
2018-07-28T19:35:02.608Z,20.8
2018-07-28T19:40:02.986Z,20.7
2018-07-28T19:45:02.511Z,20.3
2018-07-28T19:50:03.423Z,20.3
2018-07-28T19:55:02.805Z,20.2
2018-07-28T20:00:03.619Z,20.2
2018-07-28T20:05:03.180Z,20.1
2018-07-28T20:10:02.535Z,20.0
2018-07-28T20:15:03.140Z,19.7
2018-07-28T20:20:02.556Z,19.7
2018-07-28T20:25:02.899Z,19.7
2018-07-28T20:30:02.719Z,19.7
2018-07-28T20:35:03.167Z,19.5
2018-07-28T20:40:02.908Z,19.5
2018-07-28T20:45:02.348Z,19.5
2018-07-28T20:50:02.702Z,19.2
2018-07-28T20:55:03.131Z,19.1
2018-07-28T21:00:02.488Z,19.0
2018-07-28T21:05:02.927Z,19.1
2018-07-28T21:10:02.412Z,19.0
2018-07-28T21:15:03.046Z,19.0
2018-07-28T21:20:02.579Z,18.7
2018-07-28T21:25:03.010Z,18.6
2018-07-28T21:30:02.352Z,18.6
2018-07-28T21:35:02.798Z,18.7
2018-07-28T21:40:02.368Z,18.7
2018-07-28T21:45:02.855Z,18.8
2018-07-28T21:50:03.275Z,18.8
2018-07-28T21:55:02.857Z,18.8
2018-07-28T22:00:02.245Z,18.8
2018-07-28T22:05:02.834Z,18.8
2018-07-28T22:10:02.551Z,18.8
2018-07-28T22:15:03.033Z,18.7
2018-07-28T22:20:02.447Z,18.7
2018-07-28T22:25:02.816Z,18.6
2018-07-28T22:30:03.267Z,18.5
2018-07-28T22:35:02.627Z,18.2
2018-07-28T22:40:03.164Z,18.2
2018-07-28T22:45:02.519Z,18.1
2018-07-28T22:50:02.856Z,17.7
2018-07-28T22:55:03.362Z,17.7
2018-07-28T23:00:02.733Z,17.3
2018-07-28T23:05:02.745Z,17.2
2018-07-28T23:10:03.167Z,17.1
2018-07-28T23:15:02.511Z,17.0
2018-07-28T23:20:02.902Z,17.0
2018-07-28T23:25:02.320Z,17.0
2018-07-28T23:30:02.657Z,17.0
2018-07-28T23:35:03.242Z,16.7
2018-07-28T23:40:02.667Z,16.6
2018-07-28T23:45:02.993Z,16.6
2018-07-28T23:50:02.337Z,16.6
2018-07-28T23:55:02.738Z,16.7
